sensor_id;sensor_type;location;lat;lon;timestamp;temperature;humidity
31975;DHT22;18500;43.618;1.474;2023-05-19T00:00:42;13.00;1.00
31975;DHT22;18500;43.618;1.474;2023-05-19T00:03:09;12.90;1.00
31975;DHT22;18500;43.618;1.474;2023-05-19T00:05:38;13.00;1.00
31975;DHT22;18500;43.618;1.474;2023-05-19T00:08:10;13.00;1.00
31975;DHT22;18500;43.618;1.474;2023-05-19T00:10:36;13.00;1.00
31975;DHT22;18500;43.618;1.474;2023-05-19T00:13:02;12.90;1.00
31975;DHT22;18500;43.618;1.474;2023-05-19T00:15:28;12.90;1.00
31975;DHT22;18500;43.618;1.474;2023-05-19T00:17:54;13.00;1.00
31975;DHT22;18500;43.618;1.474;2023-05-19T00:20:20;12.90;1.00
31975;DHT22;18500;43.618;1.474;2023-05-19T00:22:46;12.90;1.00
31975;DHT22;18500;43.618;1.474;2023-05-19T00:25:12;12.90;1.00
31975;DHT22;18500;43.618;1.474;2023-05-19T00:27:38;12.90;1.00
31975;DHT22;18500;43.618;1.474;2023-05-19T00:30:04;12.90;1.00
31975;DHT22;18500;43.618;1.474;2023-05-19T00:32:30;12.90;1.00
31975;DHT22;18500;43.618;1.474;2023-05-19T00:34:55;12.90;1.00
31975;DHT22;18500;43.618;1.474;2023-05-19T00:37:21;12.90;1.00
31975;DHT22;18500;43.618;1.474;2023-05-19T00:39:47;12.80;1.00
31975;DHT22;18500;43.618;1.474;2023-05-19T00:42:13;12.90;1.00
31975;DHT22;18500;43.618;1.474;2023-05-19T00:44:39;12.80;1.00
31975;DHT22;18500;43.618;1.474;2023-05-19T00:47:06;12.90;1.00
31975;DHT22;18500;43.618;1.474;2023-05-19T00:49:32;12.90;1.00
31975;DHT22;18500;43.618;1.474;2023-05-19T00:51:59;12.80;1.00
31975;DHT22;18500;43.618;1.474;2023-05-19T00:54:25;12.80;1.00
31975;DHT22;18500;43.618;1.474;2023-05-19T00:56:53;12.80;1.00
31975;DHT22;18500;43.618;1.474;2023-05-19T00:59:19;12.90;1.00
31975;DHT22;18500;43.618;1.474;2023-05-19T01:01:45;12.90;1.00
31975;DHT22;18500;43.618;1.474;2023-05-19T01:04:15;12.90;1.00
31975;DHT22;18500;43.618;1.474;2023-05-19T01:06:41;12.80;1.00
31975;DHT22;18500;43.618;1.474;2023-05-19T01:09:08;12.90;1.00
31975;DHT22;18500;43.618;1.474;2023-05-19T01:11:33;12.80;1.00
31975;DHT22;18500;43.618;1.474;2023-05-19T01:13:59;12.80;1.00
31975;DHT22;18500;43.618;1.474;2023-05-19T01:16:30;12.80;1.00
31975;DHT22;18500;43.618;1.474;2023-05-19T01:24:37;12.80;1.00
31975;DHT22;18500;43.618;1.474;2023-05-19T01:27:15;12.80;1.00
31975;DHT22;18500;43.618;1.474;2023-05-19T01:32:29;12.70;1.00
31975;DHT22;18500;43.618;1.474;2023-05-19T01:34:56;12.70;1.00
31975;DHT22;18500;43.618;1.474;2023-05-19T01:37:22;12.70;1.00
31975;DHT22;18500;43.618;1.474;2023-05-19T01:39:49;12.60;1.00
31975;DHT22;18500;43.618;1.474;2023-05-19T01:42:16;12.70;1.00
31975;DHT22;18500;43.618;1.474;2023-05-19T01:44:42;12.60;1.00
31975;DHT22;18500;43.618;1.474;2023-05-19T01:47:08;12.60;1.00
31975;DHT22;18500;43.618;1.474;2023-05-19T01:49:35;12.50;1.00
31975;DHT22;18500;43.618;1.474;2023-05-19T01:52:01;12.50;1.00
31975;DHT22;18500;43.618;1.474;2023-05-19T01:54:27;12.40;1.00
31975;DHT22;18500;43.618;1.474;2023-05-19T01:57:15;12.50;1.00
31975;DHT22;18500;43.618;1.474;2023-05-19T01:59:55;12.40;1.00
31975;DHT22;18500;43.618;1.474;2023-05-19T02:02:52;12.40;1.00
31975;DHT22;18500;43.618;1.474;2023-05-19T02:05:32;12.40;1.00
31975;DHT22;18500;43.618;1.474;2023-05-19T02:10:50;12.40;1.00
31975;DHT22;18500;43.618;1.474;2023-05-19T02:13:19;12.40;1.00
31975;DHT22;18500;43.618;1.474;2023-05-19T02:15:46;12.30;1.00
31975;DHT22;18500;43.618;1.474;2023-05-19T02:18:13;12.40;1.00
31975;DHT22;18500;43.618;1.474;2023-05-19T02:20:42;12.30;1.00
31975;DHT22;18500;43.618;1.474;2023-05-19T02:23:08;12.30;1.00
31975;DHT22;18500;43.618;1.474;2023-05-19T02:25:33;12.30;1.00
31975;DHT22;18500;43.618;1.474;2023-05-19T02:27:59;12.30;1.00
31975;DHT22;18500;43.618;1.474;2023-05-19T02:30:25;12.20;1.00
31975;DHT22;18500;43.618;1.474;2023-05-19T02:32:50;12.20;1.00
31975;DHT22;18500;43.618;1.474;2023-05-19T02:35:19;12.20;1.00
31975;DHT22;18500;43.618;1.474;2023-05-19T02:37:45;12.20;1.00
31975;DHT22;18500;43.618;1.474;2023-05-19T02:40:10;12.20;1.00
31975;DHT22;18500;43.618;1.474;2023-05-19T02:42:36;12.10;1.00
31975;DHT22;18500;43.618;1.474;2023-05-19T02:45:02;12.10;1.00
31975;DHT22;18500;43.618;1.474;2023-05-19T02:47:27;11.90;1.00
31975;DHT22;18500;43.618;1.474;2023-05-19T02:49:53;11.80;99.90
31975;DHT22;18500;43.618;1.474;2023-05-19T02:52:19;11.50;1.00
31975;DHT22;18500;43.618;1.474;2023-05-19T02:54:44;11.50;1.00
31975;DHT22;18500;43.618;1.474;2023-05-19T02:57:10;11.70;1.00
31975;DHT22;18500;43.618;1.474;2023-05-19T02:59:36;11.60;99.90
31975;DHT22;18500;43.618;1.474;2023-05-19T03:02:02;11.60;99.90
31975;DHT22;18500;43.618;1.474;2023-05-19T03:04:28;11.60;1.00
31975;DHT22;18500;43.618;1.474;2023-05-19T03:06:54;11.70;99.90
31975;DHT22;18500;43.618;1.474;2023-05-19T03:09:20;11.70;1.00
31975;DHT22;18500;43.618;1.474;2023-05-19T03:11:45;11.80;1.00
31975;DHT22;18500;43.618;1.474;2023-05-19T03:14:11;11.80;1.00
31975;DHT22;18500;43.618;1.474;2023-05-19T03:16:38;11.80;1.00
31975;DHT22;18500;43.618;1.474;2023-05-19T03:19:06;11.80;1.00
31975;DHT22;18500;43.618;1.474;2023-05-19T03:21:32;11.80;1.00
31975;DHT22;18500;43.618;1.474;2023-05-19T03:23:59;11.80;1.00
31975;DHT22;18500;43.618;1.474;2023-05-19T03:26:25;11.80;1.00
31975;DHT22;18500;43.618;1.474;2023-05-19T03:28:51;11.80;1.00
31975;DHT22;18500;43.618;1.474;2023-05-19T03:31:17;11.70;1.00
31975;DHT22;18500;43.618;1.474;2023-05-19T03:33:42;11.80;1.00
31975;DHT22;18500;43.618;1.474;2023-05-19T03:36:08;11.70;1.00
31975;DHT22;18500;43.618;1.474;2023-05-19T03:38:34;11.80;1.00
31975;DHT22;18500;43.618;1.474;2023-05-19T03:41:00;11.80;1.00
31975;DHT22;18500;43.618;1.474;2023-05-19T03:43:25;11.80;1.00
31975;DHT22;18500;43.618;1.474;2023-05-19T03:45:51;11.70;1.00
31975;DHT22;18500;43.618;1.474;2023-05-19T03:48:17;11.70;1.00
31975;DHT22;18500;43.618;1.474;2023-05-19T03:50:43;11.70;1.00
31975;DHT22;18500;43.618;1.474;2023-05-19T03:53:09;11.60;1.00
31975;DHT22;18500;43.618;1.474;2023-05-19T03:55:35;11.50;1.00
31975;DHT22;18500;43.618;1.474;2023-05-19T03:58:02;11.50;1.00
31975;DHT22;18500;43.618;1.474;2023-05-19T04:00:27;11.60;1.00
31975;DHT22;18500;43.618;1.474;2023-05-19T04:02:53;11.60;1.00
31975;DHT22;18500;43.618;1.474;2023-05-19T04:05:19;11.60;1.00
31975;DHT22;18500;43.618;1.474;2023-05-19T04:07:44;11.70;1.00
31975;DHT22;18500;43.618;1.474;2023-05-19T04:10:11;11.60;1.00
31975;DHT22;18500;43.618;1.474;2023-05-19T04:12:37;11.60;1.00
31975;DHT22;18500;43.618;1.474;2023-05-19T04:15:03;11.60;1.00
31975;DHT22;18500;43.618;1.474;2023-05-19T04:17:30;11.60;1.00
31975;DHT22;18500;43.618;1.474;2023-05-19T04:19:56;11.60;1.00
31975;DHT22;18500;43.618;1.474;2023-05-19T04:22:21;11.60;1.00
31975;DHT22;18500;43.618;1.474;2023-05-19T04:24:47;11.60;1.00
31975;DHT22;18500;43.618;1.474;2023-05-19T04:27:14;11.60;1.00
31975;DHT22;18500;43.618;1.474;2023-05-19T04:29:42;11.60;1.00
31975;DHT22;18500;43.618;1.474;2023-05-19T04:32:08;11.60;1.00
31975;DHT22;18500;43.618;1.474;2023-05-19T04:34:35;11.70;1.00
31975;DHT22;18500;43.618;1.474;2023-05-19T04:37:05;11.60;1.00
31975;DHT22;18500;43.618;1.474;2023-05-19T04:39:31;11.60;1.00
31975;DHT22;18500;43.618;1.474;2023-05-19T04:41:57;11.60;1.00
31975;DHT22;18500;43.618;1.474;2023-05-19T04:44:22;11.60;1.00
31975;DHT22;18500;43.618;1.474;2023-05-19T04:46:48;11.60;1.00
31975;DHT22;18500;43.618;1.474;2023-05-19T04:49:14;11.60;1.00
31975;DHT22;18500;43.618;1.474;2023-05-19T04:51:40;11.60;1.00
31975;DHT22;18500;43.618;1.474;2023-05-19T04:54:08;11.70;1.00
31975;DHT22;18500;43.618;1.474;2023-05-19T04:56:35;11.60;1.00
31975;DHT22;18500;43.618;1.474;2023-05-19T04:59:01;11.70;1.00
31975;DHT22;18500;43.618;1.474;2023-05-19T05:01:26;11.60;1.00
31975;DHT22;18500;43.618;1.474;2023-05-19T05:03:53;11.60;1.00
31975;DHT22;18500;43.618;1.474;2023-05-19T05:06:20;11.60;1.00
31975;DHT22;18500;43.618;1.474;2023-05-19T05:08:47;11.60;1.00
31975;DHT22;18500;43.618;1.474;2023-05-19T05:11:13;11.70;1.00
31975;DHT22;18500;43.618;1.474;2023-05-19T05:13:39;11.70;1.00
31975;DHT22;18500;43.618;1.474;2023-05-19T05:16:05;11.70;1.00
31975;DHT22;18500;43.618;1.474;2023-05-19T05:18:33;11.70;1.00
31975;DHT22;18500;43.618;1.474;2023-05-19T05:20:59;11.70;1.00
31975;DHT22;18500;43.618;1.474;2023-05-19T05:23:25;11.70;1.00
31975;DHT22;18500;43.618;1.474;2023-05-19T05:25:51;11.80;1.00
31975;DHT22;18500;43.618;1.474;2023-05-19T05:28:17;11.80;1.00
31975;DHT22;18500;43.618;1.474;2023-05-19T05:30:43;11.80;1.00
31975;DHT22;18500;43.618;1.474;2023-05-19T05:33:09;11.80;1.00
31975;DHT22;18500;43.618;1.474;2023-05-19T05:35:35;11.80;1.00
31975;DHT22;18500;43.618;1.474;2023-05-19T05:38:01;11.90;1.00
31975;DHT22;18500;43.618;1.474;2023-05-19T05:40:27;11.90;1.00
31975;DHT22;18500;43.618;1.474;2023-05-19T05:42:53;11.90;1.00
31975;DHT22;18500;43.618;1.474;2023-05-19T05:45:23;11.90;1.00
31975;DHT22;18500;43.618;1.474;2023-05-19T05:47:49;12.00;1.00
31975;DHT22;18500;43.618;1.474;2023-05-19T05:50:15;12.00;1.00
31975;DHT22;18500;43.618;1.474;2023-05-19T05:52:47;11.90;1.00
31975;DHT22;18500;43.618;1.474;2023-05-19T05:55:15;12.00;1.00
31975;DHT22;18500;43.618;1.474;2023-05-19T05:57:44;12.00;1.00
31975;DHT22;18500;43.618;1.474;2023-05-19T06:00:10;12.10;1.00
31975;DHT22;18500;43.618;1.474;2023-05-19T06:02:44;12.10;1.00
31975;DHT22;18500;43.618;1.474;2023-05-19T06:05:13;12.00;1.00
31975;DHT22;18500;43.618;1.474;2023-05-19T06:07:41;12.00;1.00
31975;DHT22;18500;43.618;1.474;2023-05-19T06:10:08;12.10;1.00
31975;DHT22;18500;43.618;1.474;2023-05-19T06:12:34;12.00;1.00
31975;DHT22;18500;43.618;1.474;2023-05-19T06:15:03;12.10;1.00
31975;DHT22;18500;43.618;1.474;2023-05-19T06:17:29;12.10;1.00
31975;DHT22;18500;43.618;1.474;2023-05-19T06:19:55;12.00;1.00
31975;DHT22;18500;43.618;1.474;2023-05-19T06:22:20;12.00;1.00
31975;DHT22;18500;43.618;1.474;2023-05-19T06:24:46;12.00;1.00
31975;DHT22;18500;43.618;1.474;2023-05-19T06:27:12;12.00;1.00
31975;DHT22;18500;43.618;1.474;2023-05-19T06:29:38;12.00;1.00
31975;DHT22;18500;43.618;1.474;2023-05-19T06:32:04;12.00;1.00
31975;DHT22;18500;43.618;1.474;2023-05-19T06:34:29;12.00;1.00
31975;DHT22;18500;43.618;1.474;2023-05-19T06:36:55;12.00;1.00
31975;DHT22;18500;43.618;1.474;2023-05-19T06:39:21;12.00;1.00
31975;DHT22;18500;43.618;1.474;2023-05-19T06:41:47;12.00;1.00
31975;DHT22;18500;43.618;1.474;2023-05-19T06:44:12;11.90;1.00
31975;DHT22;18500;43.618;1.474;2023-05-19T06:46:38;12.00;1.00
31975;DHT22;18500;43.618;1.474;2023-05-19T06:49:04;12.00;1.00
31975;DHT22;18500;43.618;1.474;2023-05-19T06:51:29;12.00;1.00
31975;DHT22;18500;43.618;1.474;2023-05-19T06:53:55;12.00;1.00
31975;DHT22;18500;43.618;1.474;2023-05-19T06:56:21;12.00;1.00
31975;DHT22;18500;43.618;1.474;2023-05-19T06:58:47;12.00;1.00
31975;DHT22;18500;43.618;1.474;2023-05-19T07:01:13;11.80;1.00
31975;DHT22;18500;43.618;1.474;2023-05-19T07:03:38;11.90;1.00
31975;DHT22;18500;43.618;1.474;2023-05-19T07:06:04;11.90;1.00
31975;DHT22;18500;43.618;1.474;2023-05-19T07:08:30;11.80;1.00
31975;DHT22;18500;43.618;1.474;2023-05-19T07:10:55;11.80;1.00
31975;DHT22;18500;43.618;1.474;2023-05-19T07:13:21;11.80;1.00
31975;DHT22;18500;43.618;1.474;2023-05-19T07:15:47;11.80;1.00
31975;DHT22;18500;43.618;1.474;2023-05-19T07:18:16;11.90;1.00
31975;DHT22;18500;43.618;1.474;2023-05-19T07:20:42;11.90;1.00
31975;DHT22;18500;43.618;1.474;2023-05-19T07:23:08;11.80;1.00
31975;DHT22;18500;43.618;1.474;2023-05-19T07:25:33;11.80;1.00
31975;DHT22;18500;43.618;1.474;2023-05-19T07:27:59;12.00;1.00
31975;DHT22;18500;43.618;1.474;2023-05-19T07:30:28;12.00;1.00
31975;DHT22;18500;43.618;1.474;2023-05-19T07:32:54;11.90;1.00
31975;DHT22;18500;43.618;1.474;2023-05-19T07:35:20;11.80;1.00
31975;DHT22;18500;43.618;1.474;2023-05-19T07:37:49;11.80;1.00
31975;DHT22;18500;43.618;1.474;2023-05-19T07:40:15;11.90;1.00
31975;DHT22;18500;43.618;1.474;2023-05-19T07:42:41;12.00;1.00
31975;DHT22;18500;43.618;1.474;2023-05-19T07:45:07;12.10;1.00
31975;DHT22;18500;43.618;1.474;2023-05-19T07:47:33;12.10;1.00
31975;DHT22;18500;43.618;1.474;2023-05-19T07:49:58;12.10;1.00
31975;DHT22;18500;43.618;1.474;2023-05-19T07:52:24;11.90;1.00
31975;DHT22;18500;43.618;1.474;2023-05-19T07:54:50;11.90;1.00
31975;DHT22;18500;43.618;1.474;2023-05-19T07:57:15;12.00;1.00
31975;DHT22;18500;43.618;1.474;2023-05-19T07:59:43;12.10;1.00
31975;DHT22;18500;43.618;1.474;2023-05-19T08:02:09;12.10;1.00
31975;DHT22;18500;43.618;1.474;2023-05-19T08:04:34;12.10;1.00
31975;DHT22;18500;43.618;1.474;2023-05-19T08:07:00;12.20;1.00
31975;DHT22;18500;43.618;1.474;2023-05-19T08:09:26;12.40;1.00
31975;DHT22;18500;43.618;1.474;2023-05-19T08:11:51;12.50;1.00
31975;DHT22;18500;43.618;1.474;2023-05-19T08:14:17;12.50;1.00
31975;DHT22;18500;43.618;1.474;2023-05-19T08:16:44;12.60;1.00
31975;DHT22;18500;43.618;1.474;2023-05-19T08:19:11;12.70;1.00
31975;DHT22;18500;43.618;1.474;2023-05-19T08:21:37;12.70;1.00
31975;DHT22;18500;43.618;1.474;2023-05-19T08:24:03;12.70;1.00
31975;DHT22;18500;43.618;1.474;2023-05-19T08:26:28;12.60;1.00
31975;DHT22;18500;43.618;1.474;2023-05-19T08:28:54;12.70;1.00
31975;DHT22;18500;43.618;1.474;2023-05-19T08:31:20;12.80;1.00
31975;DHT22;18500;43.618;1.474;2023-05-19T08:33:46;13.00;1.00
31975;DHT22;18500;43.618;1.474;2023-05-19T08:36:12;13.10;1.00
31975;DHT22;18500;43.618;1.474;2023-05-19T08:38:38;12.90;1.00
31975;DHT22;18500;43.618;1.474;2023-05-19T08:41:03;13.10;1.00
31975;DHT22;18500;43.618;1.474;2023-05-19T08:43:30;13.20;1.00
31975;DHT22;18500;43.618;1.474;2023-05-19T08:45:58;13.40;1.00
31975;DHT22;18500;43.618;1.474;2023-05-19T08:48:29;13.30;1.00
31975;DHT22;18500;43.618;1.474;2023-05-19T08:53:52;13.30;1.00
31975;DHT22;18500;43.618;1.474;2023-05-19T08:56:22;13.40;1.00
31975;DHT22;18500;43.618;1.474;2023-05-19T08:58:50;13.60;1.00
31975;DHT22;18500;43.618;1.474;2023-05-19T09:01:17;13.50;1.00
31975;DHT22;18500;43.618;1.474;2023-05-19T09:03:44;13.00;1.00
31975;DHT22;18500;43.618;1.474;2023-05-19T09:06:11;13.30;1.00
31975;DHT22;18500;43.618;1.474;2023-05-19T09:08:37;13.60;1.00
31975;DHT22;18500;43.618;1.474;2023-05-19T09:11:03;13.40;1.00
31975;DHT22;18500;43.618;1.474;2023-05-19T09:13:29;13.10;1.00
31975;DHT22;18500;43.618;1.474;2023-05-19T09:15:56;13.40;1.00
31975;DHT22;18500;43.618;1.474;2023-05-19T09:18:23;13.40;1.00
31975;DHT22;18500;43.618;1.474;2023-05-19T09:20:50;13.50;1.00
31975;DHT22;18500;43.618;1.474;2023-05-19T09:23:16;14.00;1.00
31975;DHT22;18500;43.618;1.474;2023-05-19T09:25:52;14.70;1.00
31975;DHT22;18500;43.618;1.474;2023-05-19T09:31:07;14.50;1.00
31975;DHT22;18500;43.618;1.474;2023-05-19T09:33:35;14.30;1.00
31975;DHT22;18500;43.618;1.474;2023-05-19T09:36:01;14.00;1.00
31975;DHT22;18500;43.618;1.474;2023-05-19T09:38:28;13.90;1.00
31975;DHT22;18500;43.618;1.474;2023-05-19T09:40:58;14.00;1.00
31975;DHT22;18500;43.618;1.474;2023-05-19T09:43:28;13.80;1.00
31975;DHT22;18500;43.618;1.474;2023-05-19T09:45:58;14.00;1.00
31975;DHT22;18500;43.618;1.474;2023-05-19T09:48:25;14.20;1.00
31975;DHT22;18500;43.618;1.474;2023-05-19T09:50:53;14.50;1.00
31975;DHT22;18500;43.618;1.474;2023-05-19T09:53:20;14.30;1.00
31975;DHT22;18500;43.618;1.474;2023-05-19T09:55:47;14.00;1.00
31975;DHT22;18500;43.618;1.474;2023-05-19T09:58:17;14.40;1.00
31975;DHT22;18500;43.618;1.474;2023-05-19T10:00:44;14.30;1.00
31975;DHT22;18500;43.618;1.474;2023-05-19T10:03:11;14.10;1.00
31975;DHT22;18500;43.618;1.474;2023-05-19T10:05:37;14.00;1.00
31975;DHT22;18500;43.618;1.474;2023-05-19T10:08:04;14.40;1.00
31975;DHT22;18500;43.618;1.474;2023-05-19T10:10:32;14.60;1.00
31975;DHT22;18500;43.618;1.474;2023-05-19T10:12:58;15.10;1.00
31975;DHT22;18500;43.618;1.474;2023-05-19T10:15:25;15.30;1.00
31975;DHT22;18500;43.618;1.474;2023-05-19T10:17:51;14.70;1.00
31975;DHT22;18500;43.618;1.474;2023-05-19T10:20:17;14.50;1.00
31975;DHT22;18500;43.618;1.474;2023-05-19T10:22:45;14.60;1.00
31975;DHT22;18500;43.618;1.474;2023-05-19T10:25:11;14.70;1.00
31975;DHT22;18500;43.618;1.474;2023-05-19T10:27:54;14.60;1.00
31975;DHT22;18500;43.618;1.474;2023-05-19T10:30:30;14.70;1.00
31975;DHT22;18500;43.618;1.474;2023-05-19T10:32:59;14.50;1.00
31975;DHT22;18500;43.618;1.474;2023-05-19T10:38:32;15.00;99.90
31975;DHT22;18500;43.618;1.474;2023-05-19T10:41:23;14.90;1.00
31975;DHT22;18500;43.618;1.474;2023-05-19T10:47:07;14.60;1.00
31975;DHT22;18500;43.618;1.474;2023-05-19T10:49:35;13.40;1.00
31975;DHT22;18500;43.618;1.474;2023-05-19T10:52:01;13.70;1.00
31975;DHT22;18500;43.618;1.474;2023-05-19T10:54:40;13.90;99.90
31975;DHT22;18500;43.618;1.474;2023-05-19T10:57:07;14.00;1.00
31975;DHT22;18500;43.618;1.474;2023-05-19T10:59:35;14.10;1.00
31975;DHT22;18500;43.618;1.474;2023-05-19T11:02:07;14.00;99.90
31975;DHT22;18500;43.618;1.474;2023-05-19T11:07:08;14.50;1.00
31975;DHT22;18500;43.618;1.474;2023-05-19T11:09:39;14.80;1.00
31975;DHT22;18500;43.618;1.474;2023-05-19T11:12:05;14.70;1.00
31975;DHT22;18500;43.618;1.474;2023-05-19T11:14:33;14.70;1.00
31975;DHT22;18500;43.618;1.474;2023-05-19T11:16:59;14.80;1.00
31975;DHT22;18500;43.618;1.474;2023-05-19T11:19:35;14.90;1.00
31975;DHT22;18500;43.618;1.474;2023-05-19T11:22:09;14.80;1.00
31975;DHT22;18500;43.618;1.474;2023-05-19T11:24:42;15.00;1.00
31975;DHT22;18500;43.618;1.474;2023-05-19T11:30:17;15.10;1.00
31975;DHT22;18500;43.618;1.474;2023-05-19T11:32:46;15.00;1.00
31975;DHT22;18500;43.618;1.474;2023-05-19T11:35:12;15.20;1.00
31975;DHT22;18500;43.618;1.474;2023-05-19T11:37:39;14.60;1.00
31975;DHT22;18500;43.618;1.474;2023-05-19T11:40:06;14.00;99.90
31975;DHT22;18500;43.618;1.474;2023-05-19T11:42:32;14.20;1.00
31975;DHT22;18500;43.618;1.474;2023-05-19T11:45:02;14.20;1.00
31975;DHT22;18500;43.618;1.474;2023-05-19T11:47:30;14.60;1.00
31975;DHT22;18500;43.618;1.474;2023-05-19T11:49:55;14.60;1.00
31975;DHT22;18500;43.618;1.474;2023-05-19T11:52:22;14.60;1.00
31975;DHT22;18500;43.618;1.474;2023-05-19T11:54:48;14.40;1.00
31975;DHT22;18500;43.618;1.474;2023-05-19T11:57:13;14.60;1.00
31975;DHT22;18500;43.618;1.474;2023-05-19T11:59:40;14.80;1.00
31975;DHT22;18500;43.618;1.474;2023-05-19T12:04:41;15.00;1.00
31975;DHT22;18500;43.618;1.474;2023-05-19T12:07:07;15.50;1.00
31975;DHT22;18500;43.618;1.474;2023-05-19T12:09:33;16.10;1.00
31975;DHT22;18500;43.618;1.474;2023-05-19T12:11:59;16.60;1.00
31975;DHT22;18500;43.618;1.474;2023-05-19T12:14:28;16.20;1.00
31975;DHT22;18500;43.618;1.474;2023-05-19T12:16:54;15.70;1.00
31975;DHT22;18500;43.618;1.474;2023-05-19T12:19:22;16.30;1.00
31975;DHT22;18500;43.618;1.474;2023-05-19T12:21:48;16.60;1.00
31975;DHT22;18500;43.618;1.474;2023-05-19T12:24:14;16.80;1.00
31975;DHT22;18500;43.618;1.474;2023-05-19T12:26:40;17.00;1.00
31975;DHT22;18500;43.618;1.474;2023-05-19T12:29:05;16.80;1.00
31975;DHT22;18500;43.618;1.474;2023-05-19T12:31:32;16.60;1.00
31975;DHT22;18500;43.618;1.474;2023-05-19T12:33:59;17.20;1.00
31975;DHT22;18500;43.618;1.474;2023-05-19T12:36:25;17.90;1.00
31975;DHT22;18500;43.618;1.474;2023-05-19T12:38:55;16.90;1.00
31975;DHT22;18500;43.618;1.474;2023-05-19T12:41:23;16.60;1.00
31975;DHT22;18500;43.618;1.474;2023-05-19T12:43:49;16.80;1.00
31975;DHT22;18500;43.618;1.474;2023-05-19T12:46:17;16.90;1.00
31975;DHT22;18500;43.618;1.474;2023-05-19T12:48:44;17.10;1.00
31975;DHT22;18500;43.618;1.474;2023-05-19T12:51:17;17.50;1.00
31975;DHT22;18500;43.618;1.474;2023-05-19T12:53:43;17.70;1.00
31975;DHT22;18500;43.618;1.474;2023-05-19T12:56:13;16.80;1.00
31975;DHT22;18500;43.618;1.474;2023-05-19T12:58:39;16.60;1.00
31975;DHT22;18500;43.618;1.474;2023-05-19T13:01:06;16.50;1.00
31975;DHT22;18500;43.618;1.474;2023-05-19T13:03:39;16.60;1.00
31975;DHT22;18500;43.618;1.474;2023-05-19T13:06:06;17.00;1.00
31975;DHT22;18500;43.618;1.474;2023-05-19T13:08:32;17.40;1.00
31975;DHT22;18500;43.618;1.474;2023-05-19T13:10:58;18.00;1.00
31975;DHT22;18500;43.618;1.474;2023-05-19T13:13:23;18.60;1.00
31975;DHT22;18500;43.618;1.474;2023-05-19T13:15:49;19.20;1.00
31975;DHT22;18500;43.618;1.474;2023-05-19T13:18:15;19.10;1.00
31975;DHT22;18500;43.618;1.474;2023-05-19T13:20:43;18.10;1.00
31975;DHT22;18500;43.618;1.474;2023-05-19T13:23:10;17.80;1.00
31975;DHT22;18500;43.618;1.474;2023-05-19T13:25:36;17.60;1.00
31975;DHT22;18500;43.618;1.474;2023-05-19T13:28:02;17.40;1.00
31975;DHT22;18500;43.618;1.474;2023-05-19T13:30:31;17.70;1.00
31975;DHT22;18500;43.618;1.474;2023-05-19T13:32:57;18.10;1.00
31975;DHT22;18500;43.618;1.474;2023-05-19T13:35:22;17.90;1.00
31975;DHT22;18500;43.618;1.474;2023-05-19T13:37:48;16.80;1.00
31975;DHT22;18500;43.618;1.474;2023-05-19T13:40:15;16.60;1.00
31975;DHT22;18500;43.618;1.474;2023-05-19T13:42:41;16.90;1.00
31975;DHT22;18500;43.618;1.474;2023-05-19T13:45:08;17.40;1.00
31975;DHT22;18500;43.618;1.474;2023-05-19T13:47:34;17.70;1.00
31975;DHT22;18500;43.618;1.474;2023-05-19T13:50:01;17.50;1.00
31975;DHT22;18500;43.618;1.474;2023-05-19T13:52:27;17.30;1.00
31975;DHT22;18500;43.618;1.474;2023-05-19T13:54:53;17.90;1.00
31975;DHT22;18500;43.618;1.474;2023-05-19T13:57:21;18.50;1.00
31975;DHT22;18500;43.618;1.474;2023-05-19T13:59:47;18.60;1.00
31975;DHT22;18500;43.618;1.474;2023-05-19T14:02:13;18.70;1.00
31975;DHT22;18500;43.618;1.474;2023-05-19T14:04:39;18.70;1.00
31975;DHT22;18500;43.618;1.474;2023-05-19T14:07:05;19.10;1.00
31975;DHT22;18500;43.618;1.474;2023-05-19T14:09:31;19.40;1.00
31975;DHT22;18500;43.618;1.474;2023-05-19T14:11:57;18.90;1.00
31975;DHT22;18500;43.618;1.474;2023-05-19T14:14:23;19.20;1.00
31975;DHT22;18500;43.618;1.474;2023-05-19T14:16:49;19.60;1.00
31975;DHT22;18500;43.618;1.474;2023-05-19T14:19:15;19.00;1.00
31975;DHT22;18500;43.618;1.474;2023-05-19T14:21:40;19.10;1.00
31975;DHT22;18500;43.618;1.474;2023-05-19T14:24:06;19.10;1.00
31975;DHT22;18500;43.618;1.474;2023-05-19T14:26:32;18.80;1.00
31975;DHT22;18500;43.618;1.474;2023-05-19T14:28:58;18.60;1.00
31975;DHT22;18500;43.618;1.474;2023-05-19T14:31:23;18.80;1.00
31975;DHT22;18500;43.618;1.474;2023-05-19T14:33:50;19.00;1.00
31975;DHT22;18500;43.618;1.474;2023-05-19T14:36:16;18.80;1.00
31975;DHT22;18500;43.618;1.474;2023-05-19T14:38:41;18.40;1.00
31975;DHT22;18500;43.618;1.474;2023-05-19T14:41:07;17.90;1.00
31975;DHT22;18500;43.618;1.474;2023-05-19T14:43:33;18.00;1.00
31975;DHT22;18500;43.618;1.474;2023-05-19T14:45:58;17.60;1.00
31975;DHT22;18500;43.618;1.474;2023-05-19T14:48:24;17.70;1.00
31975;DHT22;18500;43.618;1.474;2023-05-19T14:50:50;17.60;1.00
31975;DHT22;18500;43.618;1.474;2023-05-19T14:53:15;18.00;1.00
31975;DHT22;18500;43.618;1.474;2023-05-19T14:55:42;17.60;1.00
31975;DHT22;18500;43.618;1.474;2023-05-19T14:58:08;18.00;1.00
31975;DHT22;18500;43.618;1.474;2023-05-19T15:00:33;17.30;1.00
31975;DHT22;18500;43.618;1.474;2023-05-19T15:02:59;17.10;1.00
31975;DHT22;18500;43.618;1.474;2023-05-19T15:05:25;17.10;1.00
31975;DHT22;18500;43.618;1.474;2023-05-19T15:07:50;16.90;1.00
31975;DHT22;18500;43.618;1.474;2023-05-19T15:10:17;16.70;1.00
31975;DHT22;18500;43.618;1.474;2023-05-19T15:12:45;16.80;1.00
31975;DHT22;18500;43.618;1.474;2023-05-19T15:15:11;16.70;1.00
31975;DHT22;18500;43.618;1.474;2023-05-19T15:17:37;16.70;1.00
31975;DHT22;18500;43.618;1.474;2023-05-19T15:20:03;16.70;1.00
31975;DHT22;18500;43.618;1.474;2023-05-19T15:22:28;16.80;1.00
31975;DHT22;18500;43.618;1.474;2023-05-19T15:24:54;16.90;1.00
31975;DHT22;18500;43.618;1.474;2023-05-19T15:27:20;16.80;1.00
31975;DHT22;18500;43.618;1.474;2023-05-19T15:29:46;16.90;1.00
31975;DHT22;18500;43.618;1.474;2023-05-19T15:32:12;16.90;1.00
31975;DHT22;18500;43.618;1.474;2023-05-19T15:34:37;16.90;1.00
31975;DHT22;18500;43.618;1.474;2023-05-19T15:37:03;16.60;1.00
31975;DHT22;18500;43.618;1.474;2023-05-19T15:39:29;16.30;1.00
31975;DHT22;18500;43.618;1.474;2023-05-19T15:41:55;16.00;1.00
31975;DHT22;18500;43.618;1.474;2023-05-19T15:44:21;15.90;1.00
31975;DHT22;18500;43.618;1.474;2023-05-19T15:46:47;15.80;1.00
31975;DHT22;18500;43.618;1.474;2023-05-19T15:49:12;15.90;1.00
31975;DHT22;18500;43.618;1.474;2023-05-19T15:51:38;15.80;1.00
31975;DHT22;18500;43.618;1.474;2023-05-19T15:54:04;15.80;1.00
31975;DHT22;18500;43.618;1.474;2023-05-19T15:56:30;15.70;1.00
31975;DHT22;18500;43.618;1.474;2023-05-19T15:58:55;15.60;1.00
31975;DHT22;18500;43.618;1.474;2023-05-19T16:01:21;15.30;1.00
31975;DHT22;18500;43.618;1.474;2023-05-19T16:03:47;15.30;1.00
31975;DHT22;18500;43.618;1.474;2023-05-19T16:06:12;15.20;1.00
31975;DHT22;18500;43.618;1.474;2023-05-19T16:08:38;14.80;99.90
31975;DHT22;18500;43.618;1.474;2023-05-19T16:11:04;14.80;1.00
31975;DHT22;18500;43.618;1.474;2023-05-19T16:13:29;14.80;1.00